South Elgin, Illinois
Current Conditions -  °F | °C
As of 1:52 AM on Saturday 25 Oct 2014 (Local Time) from KDPA Reporting Station
Clear Clear  
Wind Chill: 55°   Ceiling: Unl
Heat Index: 55°   Visibility: 10mi
Dew Point: 49°   Wind: 8mph
Humidity: 80%   Direction: 220°SW
Pressure: 29.9"   Gusts: NA
Location:  41.99°N, 88.29°W
Report Text: KDPA 250652Z 22007KT 10SM CLR 13/09 A2990 RMK AO2 SLP123 T01280094
Loading
Personal Weather Stations






























Interactive Weather Map
Tropical Storm Tracking
New forecast layout! Learn more

10-Day Weather Forecast

Advertisements
Track Severe Weather on mobile